sensor_id;sensor_type;location;lat;lon;timestamp;temperature;humidity
52513;DHT22;38422;53.172;6.974;2022-08-02T00:00:26;16.50;94.90
52513;DHT22;38422;53.172;6.974;2022-08-02T00:02:52;16.50;95.10
52513;DHT22;38422;53.172;6.974;2022-08-02T00:05:18;16.40;95.10
52513;DHT22;38422;53.172;6.974;2022-08-02T00:07:43;16.40;95.20
52513;DHT22;38422;53.172;6.974;2022-08-02T00:10:10;16.40;95.30
52513;DHT22;38422;53.172;6.974;2022-08-02T00:12:38;16.40;95.50
52513;DHT22;38422;53.172;6.974;2022-08-02T00:15:05;16.40;95.50
52513;DHT22;38422;53.172;6.974;2022-08-02T00:17:31;16.40;95.50
52513;DHT22;38422;53.172;6.974;2022-08-02T00:19:57;16.40;95.50
52513;DHT22;38422;53.172;6.974;2022-08-02T00:22:22;16.40;95.60
52513;DHT22;38422;53.172;6.974;2022-08-02T00:24:48;16.40;95.60
52513;DHT22;38422;53.172;6.974;2022-08-02T00:27:14;16.40;95.70
52513;DHT22;38422;53.172;6.974;2022-08-02T00:29:39;16.40;95.80
52513;DHT22;38422;53.172;6.974;2022-08-02T00:32:05;16.30;95.80
52513;DHT22;38422;53.172;6.974;2022-08-02T00:34:30;16.30;95.90
52513;DHT22;38422;53.172;6.974;2022-08-02T00:36:56;16.30;96.00
52513;DHT22;38422;53.172;6.974;2022-08-02T00:39:22;16.20;96.10
52513;DHT22;38422;53.172;6.974;2022-08-02T00:41:50;16.20;96.20
52513;DHT22;38422;53.172;6.974;2022-08-02T00:44:16;16.20;96.30
52513;DHT22;38422;53.172;6.974;2022-08-02T00:46:42;16.20;96.40
52513;DHT22;38422;53.172;6.974;2022-08-02T00:49:08;16.10;96.50
52513;DHT22;38422;53.172;6.974;2022-08-02T00:51:34;16.10;96.60
52513;DHT22;38422;53.172;6.974;2022-08-02T00:54:00;16.10;96.70
52513;DHT22;38422;53.172;6.974;2022-08-02T00:56:25;16.10;96.70
52513;DHT22;38422;53.172;6.974;2022-08-02T00:58:51;16.10;97.00
52513;DHT22;38422;53.172;6.974;2022-08-02T01:01:17;16.10;96.80
52513;DHT22;38422;53.172;6.974;2022-08-02T01:03:42;16.10;96.80
52513;DHT22;38422;53.172;6.974;2022-08-02T01:06:09;16.10;96.80
52513;DHT22;38422;53.172;6.974;2022-08-02T01:08:37;16.00;96.90
52513;DHT22;38422;53.172;6.974;2022-08-02T01:11:03;16.00;97.00
52513;DHT22;38422;53.172;6.974;2022-08-02T01:13:28;16.00;97.00
52513;DHT22;38422;53.172;6.974;2022-08-02T01:15:59;16.00;97.00
52513;DHT22;38422;53.172;6.974;2022-08-02T01:18:35;15.90;97.10
52513;DHT22;38422;53.172;6.974;2022-08-02T01:26:56;15.80;97.40
52513;DHT22;38422;53.172;6.974;2022-08-02T01:29:44;15.70;97.40
52513;DHT22;38422;53.172;6.974;2022-08-02T01:32:16;15.70;97.50
52513;DHT22;38422;53.172;6.974;2022-08-02T01:34:55;15.70;97.70
52513;DHT22;38422;53.172;6.974;2022-08-02T01:40:02;15.60;97.80
52513;DHT22;38422;53.172;6.974;2022-08-02T01:42:29;15.60;97.90
52513;DHT22;38422;53.172;6.974;2022-08-02T01:44:56;15.50;98.00
52513;DHT22;38422;53.172;6.974;2022-08-02T01:47:26;15.50;98.10
52513;DHT22;38422;53.172;6.974;2022-08-02T01:49:55;15.50;98.20
52513;DHT22;38422;53.172;6.974;2022-08-02T01:52:22;15.40;98.20
52513;DHT22;38422;53.172;6.974;2022-08-02T01:55:04;15.40;98.60
52513;DHT22;38422;53.172;6.974;2022-08-02T01:57:36;15.40;98.50
52513;DHT22;38422;53.172;6.974;2022-08-02T02:00:05;15.40;98.60
52513;DHT22;38422;53.172;6.974;2022-08-02T02:02:33;15.40;98.70
52513;DHT22;38422;53.172;6.974;2022-08-02T02:05:01;15.40;98.70
52513;DHT22;38422;53.172;6.974;2022-08-02T02:07:30;15.40;98.60
52513;DHT22;38422;53.172;6.974;2022-08-02T02:09:58;15.40;98.70
52513;DHT22;38422;53.172;6.974;2022-08-02T02:12:25;15.40;98.80
52513;DHT22;38422;53.172;6.974;2022-08-02T02:14:53;15.30;98.90
52513;DHT22;38422;53.172;6.974;2022-08-02T02:17:23;15.30;99.00
52513;DHT22;38422;53.172;6.974;2022-08-02T02:19:50;15.30;99.20
52513;DHT22;38422;53.172;6.974;2022-08-02T02:22:17;15.20;99.30
52513;DHT22;38422;53.172;6.974;2022-08-02T02:24:43;15.20;99.40
52513;DHT22;38422;53.172;6.974;2022-08-02T02:27:11;15.20;99.50
52513;DHT22;38422;53.172;6.974;2022-08-02T02:29:40;15.10;99.60
52513;DHT22;38422;53.172;6.974;2022-08-02T02:32:07;15.10;99.70
52513;DHT22;38422;53.172;6.974;2022-08-02T02:34:36;15.10;99.80
52513;DHT22;38422;53.172;6.974;2022-08-02T02:37:05;15.10;99.90
52513;DHT22;38422;53.172;6.974;2022-08-02T02:39:33;15.10;99.90
52513;DHT22;38422;53.172;6.974;2022-08-02T02:42:01;15.10;99.90
52513;DHT22;38422;53.172;6.974;2022-08-02T02:44:28;15.10;99.90
52513;DHT22;38422;53.172;6.974;2022-08-02T02:46:54;15.00;99.90
52513;DHT22;38422;53.172;6.974;2022-08-02T02:49:22;15.00;99.90
52513;DHT22;38422;53.172;6.974;2022-08-02T02:51:48;15.00;99.90
52513;DHT22;38422;53.172;6.974;2022-08-02T02:54:15;14.90;99.90
52513;DHT22;38422;53.172;6.974;2022-08-02T02:56:42;14.90;99.90
52513;DHT22;38422;53.172;6.974;2022-08-02T02:59:12;14.90;99.90
52513;DHT22;38422;53.172;6.974;2022-08-02T03:01:38;14.90;99.90
52513;DHT22;38422;53.172;6.974;2022-08-02T03:04:06;14.90;99.90
52513;DHT22;38422;53.172;6.974;2022-08-02T03:06:38;14.90;99.90
52513;DHT22;38422;53.172;6.974;2022-08-02T03:09:04;14.90;99.90
52513;DHT22;38422;53.172;6.974;2022-08-02T03:11:31;14.90;99.90
52513;DHT22;38422;53.172;6.974;2022-08-02T03:13:58;14.80;99.90
52513;DHT22;38422;53.172;6.974;2022-08-02T03:16:27;14.90;99.90
52513;DHT22;38422;53.172;6.974;2022-08-02T03:18:54;14.80;99.90
52513;DHT22;38422;53.172;6.974;2022-08-02T03:21:20;14.80;99.90
52513;DHT22;38422;53.172;6.974;2022-08-02T03:23:47;14.80;99.90
52513;DHT22;38422;53.172;6.974;2022-08-02T03:26:12;14.70;99.90
52513;DHT22;38422;53.172;6.974;2022-08-02T03:28:39;14.70;99.90
52513;DHT22;38422;53.172;6.974;2022-08-02T03:31:05;14.60;99.90
52513;DHT22;38422;53.172;6.974;2022-08-02T03:33:31;14.60;99.90
52513;DHT22;38422;53.172;6.974;2022-08-02T03:35:58;14.60;99.90
52513;DHT22;38422;53.172;6.974;2022-08-02T03:38:25;14.60;99.90
52513;DHT22;38422;53.172;6.974;2022-08-02T03:40:52;14.60;99.90
52513;DHT22;38422;53.172;6.974;2022-08-02T03:43:19;14.60;99.90
52513;DHT22;38422;53.172;6.974;2022-08-02T03:45:47;14.60;99.90
52513;DHT22;38422;53.172;6.974;2022-08-02T03:48:17;14.50;99.90
52513;DHT22;38422;53.172;6.974;2022-08-02T03:50:46;14.50;99.90
52513;DHT22;38422;53.172;6.974;2022-08-02T03:53:13;14.50;99.90
52513;DHT22;38422;53.172;6.974;2022-08-02T03:55:41;14.50;99.90
52513;DHT22;38422;53.172;6.974;2022-08-02T03:58:07;14.50;99.90
52513;DHT22;38422;53.172;6.974;2022-08-02T04:00:33;14.50;99.90
52513;DHT22;38422;53.172;6.974;2022-08-02T04:02:59;14.40;99.90
52513;DHT22;38422;53.172;6.974;2022-08-02T04:05:25;14.50;99.90
52513;DHT22;38422;53.172;6.974;2022-08-02T04:07:51;14.50;99.90
52513;DHT22;38422;53.172;6.974;2022-08-02T04:10:17;14.50;99.90
52513;DHT22;38422;53.172;6.974;2022-08-02T04:12:42;14.50;99.90
52513;DHT22;38422;53.172;6.974;2022-08-02T04:15:11;14.50;99.90
52513;DHT22;38422;53.172;6.974;2022-08-02T04:17:40;14.50;99.90
52513;DHT22;38422;53.172;6.974;2022-08-02T04:20:23;14.50;99.90
52513;DHT22;38422;53.172;6.974;2022-08-02T04:23:00;14.50;99.90
52513;DHT22;38422;53.172;6.974;2022-08-02T04:25:26;14.50;99.90
52513;DHT22;38422;53.172;6.974;2022-08-02T04:27:52;14.50;99.90
52513;DHT22;38422;53.172;6.974;2022-08-02T04:30:19;14.40;99.90
52513;DHT22;38422;53.172;6.974;2022-08-02T04:32:45;14.50;99.90
52513;DHT22;38422;53.172;6.974;2022-08-02T04:35:12;14.50;99.90
52513;DHT22;38422;53.172;6.974;2022-08-02T04:37:38;14.50;99.90
52513;DHT22;38422;53.172;6.974;2022-08-02T04:40:08;14.50;99.90
52513;DHT22;38422;53.172;6.974;2022-08-02T04:42:34;14.50;99.90
52513;DHT22;38422;53.172;6.974;2022-08-02T04:45:00;14.50;99.90
52513;DHT22;38422;53.172;6.974;2022-08-02T04:47:27;14.50;99.90
52513;DHT22;38422;53.172;6.974;2022-08-02T04:49:53;14.50;99.90
52513;DHT22;38422;53.172;6.974;2022-08-02T04:52:19;14.50;99.90
52513;DHT22;38422;53.172;6.974;2022-08-02T04:54:44;14.50;99.90
52513;DHT22;38422;53.172;6.974;2022-08-02T04:57:10;14.50;99.90
52513;DHT22;38422;53.172;6.974;2022-08-02T04:59:55;14.50;99.90
52513;DHT22;38422;53.172;6.974;2022-08-02T05:02:20;14.50;99.90
52513;DHT22;38422;53.172;6.974;2022-08-02T05:04:46;14.50;99.90
52513;DHT22;38422;53.172;6.974;2022-08-02T05:07:11;14.50;99.90
52513;DHT22;38422;53.172;6.974;2022-08-02T05:09:37;14.50;99.90
52513;DHT22;38422;53.172;6.974;2022-08-02T05:12:03;14.50;99.90
52513;DHT22;38422;53.172;6.974;2022-08-02T05:14:28;14.50;99.90
52513;DHT22;38422;53.172;6.974;2022-08-02T05:16:54;14.50;99.90
52513;DHT22;38422;53.172;6.974;2022-08-02T05:19:20;14.60;99.90
52513;DHT22;38422;53.172;6.974;2022-08-02T05:21:46;14.60;99.90
52513;DHT22;38422;53.172;6.974;2022-08-02T05:24:11;14.60;99.90
52513;DHT22;38422;53.172;6.974;2022-08-02T05:26:37;14.60;99.90
52513;DHT22;38422;53.172;6.974;2022-08-02T05:29:03;14.60;99.90
52513;DHT22;38422;53.172;6.974;2022-08-02T05:31:29;14.70;99.90
52513;DHT22;38422;53.172;6.974;2022-08-02T05:33:55;14.70;99.90
52513;DHT22;38422;53.172;6.974;2022-08-02T05:36:20;14.80;99.90
52513;DHT22;38422;53.172;6.974;2022-08-02T05:38:46;14.80;99.90
52513;DHT22;38422;53.172;6.974;2022-08-02T05:41:12;14.80;99.90
52513;DHT22;38422;53.172;6.974;2022-08-02T05:43:37;14.90;99.90
52513;DHT22;38422;53.172;6.974;2022-08-02T05:46:03;14.90;99.90
52513;DHT22;38422;53.172;6.974;2022-08-02T05:48:29;14.90;99.90
52513;DHT22;38422;53.172;6.974;2022-08-02T05:51:03;15.00;99.90
52513;DHT22;38422;53.172;6.974;2022-08-02T05:56:30;15.00;99.90
52513;DHT22;38422;53.172;6.974;2022-08-02T05:59:10;15.00;99.90
52513;DHT22;38422;53.172;6.974;2022-08-02T06:01:38;15.10;99.90
52513;DHT22;38422;53.172;6.974;2022-08-02T06:04:09;15.20;99.90
52513;DHT22;38422;53.172;6.974;2022-08-02T06:06:36;15.20;99.90
52513;DHT22;38422;53.172;6.974;2022-08-02T06:09:10;15.20;99.90
52513;DHT22;38422;53.172;6.974;2022-08-02T06:11:43;15.30;99.90
52513;DHT22;38422;53.172;6.974;2022-08-02T06:14:09;15.30;99.90
52513;DHT22;38422;53.172;6.974;2022-08-02T06:16:35;15.40;99.90
52513;DHT22;38422;53.172;6.974;2022-08-02T06:19:01;15.50;99.90
52513;DHT22;38422;53.172;6.974;2022-08-02T06:21:28;15.50;99.90
52513;DHT22;38422;53.172;6.974;2022-08-02T06:23:54;15.60;99.90
52513;DHT22;38422;53.172;6.974;2022-08-02T06:26:22;15.60;99.90
52513;DHT22;38422;53.172;6.974;2022-08-02T06:28:48;15.70;99.90
52513;DHT22;38422;53.172;6.974;2022-08-02T06:31:14;15.70;99.90
52513;DHT22;38422;53.172;6.974;2022-08-02T06:33:40;15.80;99.90
52513;DHT22;38422;53.172;6.974;2022-08-02T06:36:41;15.90;99.90
52513;DHT22;38422;53.172;6.974;2022-08-02T06:39:20;16.00;99.90
52513;DHT22;38422;53.172;6.974;2022-08-02T06:41:51;16.10;99.90
52513;DHT22;38422;53.172;6.974;2022-08-02T06:44:19;16.20;99.90
52513;DHT22;38422;53.172;6.974;2022-08-02T06:46:45;16.20;99.90
52513;DHT22;38422;53.172;6.974;2022-08-02T06:49:11;16.30;99.90
52513;DHT22;38422;53.172;6.974;2022-08-02T06:55:51;16.50;99.90
52513;DHT22;38422;53.172;6.974;2022-08-02T06:58:17;16.60;99.90
52513;DHT22;38422;53.172;6.974;2022-08-02T07:00:43;16.60;99.90
52513;DHT22;38422;53.172;6.974;2022-08-02T07:03:08;16.60;99.90
52513;DHT22;38422;53.172;6.974;2022-08-02T07:05:34;16.70;99.90
52513;DHT22;38422;53.172;6.974;2022-08-02T07:08:01;16.70;99.90
52513;DHT22;38422;53.172;6.974;2022-08-02T07:10:27;16.80;99.90
52513;DHT22;38422;53.172;6.974;2022-08-02T07:12:53;16.80;99.90
52513;DHT22;38422;53.172;6.974;2022-08-02T07:15:18;16.80;99.90
52513;DHT22;38422;53.172;6.974;2022-08-02T07:17:44;16.90;99.90
52513;DHT22;38422;53.172;6.974;2022-08-02T07:20:10;17.00;99.90
52513;DHT22;38422;53.172;6.974;2022-08-02T07:22:35;17.10;99.90
52513;DHT22;38422;53.172;6.974;2022-08-02T07:25:03;17.20;99.90
52513;DHT22;38422;53.172;6.974;2022-08-02T07:27:30;17.30;99.90
52513;DHT22;38422;53.172;6.974;2022-08-02T07:29:56;17.40;99.90
52513;DHT22;38422;53.172;6.974;2022-08-02T07:32:26;17.50;99.90
52513;DHT22;38422;53.172;6.974;2022-08-02T07:34:53;17.70;99.90
52513;DHT22;38422;53.172;6.974;2022-08-02T07:37:24;17.70;99.90
52513;DHT22;38422;53.172;6.974;2022-08-02T07:39:49;17.80;99.90
52513;DHT22;38422;53.172;6.974;2022-08-02T07:42:15;17.90;99.90
52513;DHT22;38422;53.172;6.974;2022-08-02T07:44:41;17.90;99.90
52513;DHT22;38422;53.172;6.974;2022-08-02T07:47:06;18.00;99.90
52513;DHT22;38422;53.172;6.974;2022-08-02T07:49:32;18.00;99.90
52513;DHT22;38422;53.172;6.974;2022-08-02T07:51:57;18.10;99.90
52513;DHT22;38422;53.172;6.974;2022-08-02T07:54:23;18.20;99.90
52513;DHT22;38422;53.172;6.974;2022-08-02T07:56:49;18.30;99.90
52513;DHT22;38422;53.172;6.974;2022-08-02T07:59:16;18.40;99.90
52513;DHT22;38422;53.172;6.974;2022-08-02T08:01:42;18.40;99.90
52513;DHT22;38422;53.172;6.974;2022-08-02T08:04:07;18.50;99.90
52513;DHT22;38422;53.172;6.974;2022-08-02T08:06:33;18.60;99.90
52513;DHT22;38422;53.172;6.974;2022-08-02T08:08:59;18.70;99.90
52513;DHT22;38422;53.172;6.974;2022-08-02T08:11:24;18.80;99.90
52513;DHT22;38422;53.172;6.974;2022-08-02T08:13:50;18.80;99.90
52513;DHT22;38422;53.172;6.974;2022-08-02T08:16:16;18.90;99.90
52513;DHT22;38422;53.172;6.974;2022-08-02T08:18:42;19.00;99.90
52513;DHT22;38422;53.172;6.974;2022-08-02T08:21:08;19.10;99.90
52513;DHT22;38422;53.172;6.974;2022-08-02T08:23:34;19.20;99.90
52513;DHT22;38422;53.172;6.974;2022-08-02T08:26:00;19.30;99.90
52513;DHT22;38422;53.172;6.974;2022-08-02T08:28:26;19.40;99.90
52513;DHT22;38422;53.172;6.974;2022-08-02T08:30:52;19.50;99.90
52513;DHT22;38422;53.172;6.974;2022-08-02T08:33:17;19.60;99.90
52513;DHT22;38422;53.172;6.974;2022-08-02T08:35:43;19.70;99.90
52513;DHT22;38422;53.172;6.974;2022-08-02T08:41:49;19.90;99.90
52513;DHT22;38422;53.172;6.974;2022-08-02T08:44:15;20.10;99.90
52513;DHT22;38422;53.172;6.974;2022-08-02T08:46:42;20.20;99.50
52513;DHT22;38422;53.172;6.974;2022-08-02T08:49:14;20.30;98.50
52513;DHT22;38422;53.172;6.974;2022-08-02T08:51:43;20.40;98.10
52513;DHT22;38422;53.172;6.974;2022-08-02T08:54:13;20.50;98.30
52513;DHT22;38422;53.172;6.974;2022-08-02T08:56:39;20.70;98.60
52513;DHT22;38422;53.172;6.974;2022-08-02T08:59:06;20.80;98.10
52513;DHT22;38422;53.172;6.974;2022-08-02T09:01:33;20.90;97.10
52513;DHT22;38422;53.172;6.974;2022-08-02T09:03:59;21.00;96.40
52513;DHT22;38422;53.172;6.974;2022-08-02T09:06:24;21.10;95.20
52513;DHT22;38422;53.172;6.974;2022-08-02T09:08:50;21.10;95.10
52513;DHT22;38422;53.172;6.974;2022-08-02T09:11:18;21.10;94.70
52513;DHT22;38422;53.172;6.974;2022-08-02T09:13:58;21.30;95.00
52513;DHT22;38422;53.172;6.974;2022-08-02T09:16:33;21.40;94.00
52513;DHT22;38422;53.172;6.974;2022-08-02T09:19:33;21.50;93.20
52513;DHT22;38422;53.172;6.974;2022-08-02T09:22:05;21.60;93.40
52513;DHT22;38422;53.172;6.974;2022-08-02T09:27:21;21.80;92.60
52513;DHT22;38422;53.172;6.974;2022-08-02T09:29:49;21.90;91.60
52513;DHT22;38422;53.172;6.974;2022-08-02T09:32:15;22.10;92.60
52513;DHT22;38422;53.172;6.974;2022-08-02T09:34:51;22.20;91.80
52513;DHT22;38422;53.172;6.974;2022-08-02T09:37:35;22.40;90.70
52513;DHT22;38422;53.172;6.974;2022-08-02T09:40:01;22.50;87.20
52513;DHT22;38422;53.172;6.974;2022-08-02T09:42:29;22.60;90.30
52513;DHT22;38422;53.172;6.974;2022-08-02T09:44:57;22.80;90.60
52513;DHT22;38422;53.172;6.974;2022-08-02T09:47:28;23.00;90.00
52513;DHT22;38422;53.172;6.974;2022-08-02T09:49:55;23.30;88.90
52513;DHT22;38422;53.172;6.974;2022-08-02T09:52:24;23.40;88.10
52513;DHT22;38422;53.172;6.974;2022-08-02T09:54:50;23.60;87.90
52513;DHT22;38422;53.172;6.974;2022-08-02T09:57:24;23.80;86.50
52513;DHT22;38422;53.172;6.974;2022-08-02T09:59:54;24.10;85.50
52513;DHT22;38422;53.172;6.974;2022-08-02T10:02:19;24.40;86.60
52513;DHT22;38422;53.172;6.974;2022-08-02T10:04:45;24.60;85.70
52513;DHT22;38422;53.172;6.974;2022-08-02T10:07:11;24.80;86.30
52513;DHT22;38422;53.172;6.974;2022-08-02T10:09:37;24.80;84.70
52513;DHT22;38422;53.172;6.974;2022-08-02T10:12:04;24.80;83.40
52513;DHT22;38422;53.172;6.974;2022-08-02T10:14:32;24.70;84.70
52513;DHT22;38422;53.172;6.974;2022-08-02T10:16:59;24.60;84.90
52513;DHT22;38422;53.172;6.974;2022-08-02T10:19:25;24.50;85.50
52513;DHT22;38422;53.172;6.974;2022-08-02T10:24:26;24.70;86.30
52513;DHT22;38422;53.172;6.974;2022-08-02T10:26:53;24.80;84.90
52513;DHT22;38422;53.172;6.974;2022-08-02T10:29:23;25.00;85.80
52513;DHT22;38422;53.172;6.974;2022-08-02T10:31:53;25.00;85.00
52513;DHT22;38422;53.172;6.974;2022-08-02T10:34:32;25.10;85.40
52513;DHT22;38422;53.172;6.974;2022-08-02T10:37:04;25.20;85.80
52513;DHT22;38422;53.172;6.974;2022-08-02T10:39:43;25.30;86.50
52513;DHT22;38422;53.172;6.974;2022-08-02T10:42:10;25.40;84.70
52513;DHT22;38422;53.172;6.974;2022-08-02T10:44:36;25.50;85.90
52513;DHT22;38422;53.172;6.974;2022-08-02T10:47:23;25.60;85.00
52513;DHT22;38422;53.172;6.974;2022-08-02T10:49:56;25.80;85.70
52513;DHT22;38422;53.172;6.974;2022-08-02T10:52:26;25.90;84.90
52513;DHT22;38422;53.172;6.974;2022-08-02T10:54:57;26.20;85.10
52513;DHT22;38422;53.172;6.974;2022-08-02T10:57:28;26.40;84.60
52513;DHT22;38422;53.172;6.974;2022-08-02T11:00:04;26.60;84.30
52513;DHT22;38422;53.172;6.974;2022-08-02T11:02:40;26.80;84.50
52513;DHT22;38422;53.172;6.974;2022-08-02T11:05:15;27.00;84.90
52513;DHT22;38422;53.172;6.974;2022-08-02T11:07:44;27.20;83.70
52513;DHT22;38422;53.172;6.974;2022-08-02T11:15:23;26.90;83.80
52513;DHT22;38422;53.172;6.974;2022-08-02T11:17:58;26.90;83.80
52513;DHT22;38422;53.172;6.974;2022-08-02T11:20:25;27.00;84.80
52513;DHT22;38422;53.172;6.974;2022-08-02T11:22:53;27.00;84.70
52513;DHT22;38422;53.172;6.974;2022-08-02T11:27:52;27.30;84.90
52513;DHT22;38422;53.172;6.974;2022-08-02T11:30:19;27.40;84.40
52513;DHT22;38422;53.172;6.974;2022-08-02T11:32:45;27.60;84.00
52513;DHT22;38422;53.172;6.974;2022-08-02T11:35:11;27.80;84.20
52513;DHT22;38422;53.172;6.974;2022-08-02T11:37:40;27.80;83.60
52513;DHT22;38422;53.172;6.974;2022-08-02T11:40:09;27.90;84.30
52513;DHT22;38422;53.172;6.974;2022-08-02T11:42:36;27.80;83.20
52513;DHT22;38422;53.172;6.974;2022-08-02T11:45:03;27.80;83.10
52513;DHT22;38422;53.172;6.974;2022-08-02T11:47:29;27.80;84.00
52513;DHT22;38422;53.172;6.974;2022-08-02T11:50:09;27.80;84.30
52513;DHT22;38422;53.172;6.974;2022-08-02T11:52:36;27.80;84.30
52513;DHT22;38422;53.172;6.974;2022-08-02T11:55:01;27.90;84.70
52513;DHT22;38422;53.172;6.974;2022-08-02T11:57:27;28.10;84.30
52513;DHT22;38422;53.172;6.974;2022-08-02T11:59:54;28.30;84.40
52513;DHT22;38422;53.172;6.974;2022-08-02T12:02:25;28.50;84.70
52513;DHT22;38422;53.172;6.974;2022-08-02T12:04:56;28.60;83.60
52513;DHT22;38422;53.172;6.974;2022-08-02T12:07:34;28.90;83.90
52513;DHT22;38422;53.172;6.974;2022-08-02T12:10:34;29.00;82.30
52513;DHT22;38422;53.172;6.974;2022-08-02T12:12:58;29.00;82.10
52513;DHT22;38422;53.172;6.974;2022-08-02T12:17:57;28.50;80.90
52513;DHT22;38422;53.172;6.974;2022-08-02T12:20:42;28.20;81.40
52513;DHT22;38422;53.172;6.974;2022-08-02T12:23:07;27.90;81.00
52513;DHT22;38422;53.172;6.974;2022-08-02T12:25:33;27.80;81.70
52513;DHT22;38422;53.172;6.974;2022-08-02T12:28:35;27.70;82.30
52513;DHT22;38422;53.172;6.974;2022-08-02T12:31:04;27.70;81.60
52513;DHT22;38422;53.172;6.974;2022-08-02T12:33:44;27.70;82.40
52513;DHT22;38422;53.172;6.974;2022-08-02T12:36:24;27.60;82.20
52513;DHT22;38422;53.172;6.974;2022-08-02T12:38:57;27.50;82.30
52513;DHT22;38422;53.172;6.974;2022-08-02T12:41:24;27.50;83.30
52513;DHT22;38422;53.172;6.974;2022-08-02T12:43:50;27.50;83.10
52513;DHT22;38422;53.172;6.974;2022-08-02T12:46:18;27.40;83.40
52513;DHT22;38422;53.172;6.974;2022-08-02T12:48:44;27.30;83.70
52513;DHT22;38422;53.172;6.974;2022-08-02T12:51:25;27.30;84.30
52513;DHT22;38422;53.172;6.974;2022-08-02T12:53:54;27.10;85.70
52513;DHT22;38422;53.172;6.974;2022-08-02T12:56:37;27.10;85.40
52513;DHT22;38422;53.172;6.974;2022-08-02T12:59:03;27.00;86.80
52513;DHT22;38422;53.172;6.974;2022-08-02T13:01:29;27.10;86.30
52513;DHT22;38422;53.172;6.974;2022-08-02T13:03:56;27.20;86.20
52513;DHT22;38422;53.172;6.974;2022-08-02T13:06:22;27.30;85.70
52513;DHT22;38422;53.172;6.974;2022-08-02T13:08:48;27.30;84.60
52513;DHT22;38422;53.172;6.974;2022-08-02T13:11:14;27.30;84.30
52513;DHT22;38422;53.172;6.974;2022-08-02T13:13:40;27.40;83.40
52513;DHT22;38422;53.172;6.974;2022-08-02T13:16:08;27.30;82.00
52513;DHT22;38422;53.172;6.974;2022-08-02T13:18:33;27.20;82.40
52513;DHT22;38422;53.172;6.974;2022-08-02T13:20:59;27.10;82.80
52513;DHT22;38422;53.172;6.974;2022-08-02T13:23:25;27.00;83.50
52513;DHT22;38422;53.172;6.974;2022-08-02T13:25:50;27.10;84.30
52513;DHT22;38422;53.172;6.974;2022-08-02T13:28:18;27.00;84.90
52513;DHT22;38422;53.172;6.974;2022-08-02T13:30:43;27.10;85.30
52513;DHT22;38422;53.172;6.974;2022-08-02T13:33:10;27.20;84.20
52513;DHT22;38422;53.172;6.974;2022-08-02T13:35:36;27.20;84.50
52513;DHT22;38422;53.172;6.974;2022-08-02T13:38:01;27.20;84.20
52513;DHT22;38422;53.172;6.974;2022-08-02T13:40:29;27.20;83.80
52513;DHT22;38422;53.172;6.974;2022-08-02T13:42:54;27.10;84.80
52513;DHT22;38422;53.172;6.974;2022-08-02T13:45:20;27.00;84.90
52513;DHT22;38422;53.172;6.974;2022-08-02T13:47:45;26.80;85.40
52513;DHT22;38422;53.172;6.974;2022-08-02T13:50:12;26.80;85.80
52513;DHT22;38422;53.172;6.974;2022-08-02T13:52:38;26.90;86.30
52513;DHT22;38422;53.172;6.974;2022-08-02T13:55:04;27.00;86.00
52513;DHT22;38422;53.172;6.974;2022-08-02T13:57:29;26.90;86.10
52513;DHT22;38422;53.172;6.974;2022-08-02T13:59:55;27.00;86.10
52513;DHT22;38422;53.172;6.974;2022-08-02T14:02:21;26.80;86.20
52513;DHT22;38422;53.172;6.974;2022-08-02T14:04:47;26.80;86.80
52513;DHT22;38422;53.172;6.974;2022-08-02T14:07:12;26.70;87.80
52513;DHT22;38422;53.172;6.974;2022-08-02T14:09:38;26.60;87.60
52513;DHT22;38422;53.172;6.974;2022-08-02T14:12:05;26.60;87.60
52513;DHT22;38422;53.172;6.974;2022-08-02T14:14:31;26.50;87.90
52513;DHT22;38422;53.172;6.974;2022-08-02T14:16:57;26.50;89.10
52513;DHT22;38422;53.172;6.974;2022-08-02T14:19:23;26.30;88.90
52513;DHT22;38422;53.172;6.974;2022-08-02T14:21:50;26.10;89.40
52513;DHT22;38422;53.172;6.974;2022-08-02T14:24:16;26.00;89.80
52513;DHT22;38422;53.172;6.974;2022-08-02T14:26:42;25.90;90.00
52513;DHT22;38422;53.172;6.974;2022-08-02T14:29:08;25.80;90.10
52513;DHT22;38422;53.172;6.974;2022-08-02T14:31:33;25.70;90.20
52513;DHT22;38422;53.172;6.974;2022-08-02T14:33:59;25.70;90.50
52513;DHT22;38422;53.172;6.974;2022-08-02T14:36:24;25.60;90.60
52513;DHT22;38422;53.172;6.974;2022-08-02T14:38:50;25.60;90.90
52513;DHT22;38422;53.172;6.974;2022-08-02T14:41:16;25.60;91.00
52513;DHT22;38422;53.172;6.974;2022-08-02T14:43:41;25.60;91.10
52513;DHT22;38422;53.172;6.974;2022-08-02T14:46:26;25.60;91.20
52513;DHT22;38422;53.172;6.974;2022-08-02T14:48:51;25.60;91.20
52513;DHT22;38422;53.172;6.974;2022-08-02T14:51:17;25.70;91.40
52513;DHT22;38422;53.172;6.974;2022-08-02T14:53:43;25.70;91.50
52513;DHT22;38422;53.172;6.974;2022-08-02T14:56:08;25.70;91.40
52513;DHT22;38422;53.172;6.974;2022-08-02T14:58:34;25.70;91.20
52513;DHT22;38422;53.172;6.974;2022-08-02T15:01:00;25.70;91.10
52513;DHT22;38422;53.172;6.974;2022-08-02T15:03:25;25.70;91.20
52513;DHT22;38422;53.172;6.974;2022-08-02T15:05:51;25.80;91.30
52513;DHT22;38422;53.172;6.974;2022-08-02T15:08:17;25.80;91.20
52513;DHT22;38422;53.172;6.974;2022-08-02T15:10:42;25.80;91.30
52513;DHT22;38422;53.172;6.974;2022-08-02T15:13:08;25.80;91.40
52513;DHT22;38422;53.172;6.974;2022-08-02T15:15:34;25.80;91.30
52513;DHT22;38422;53.172;6.974;2022-08-02T15:18:00;25.80;91.30
52513;DHT22;38422;53.172;6.974;2022-08-02T15:20:25;25.80;91.40
52513;DHT22;38422;53.172;6.974;2022-08-02T15:22:51;26.00;91.50
52513;DHT22;38422;53.172;6.974;2022-08-02T15:25:18;26.10;91.40
52513;DHT22;38422;53.172;6.974;2022-08-02T15:27:44;26.30;91.40
52513;DHT22;38422;53.172;6.974;2022-08-02T15:30:10;26.50;91.40
52513;DHT22;38422;53.172;6.974;2022-08-02T15:32:35;26.80;91.30
52513;DHT22;38422;53.172;6.974;2022-08-02T15:35:01;27.00;91.20
52513;DHT22;38422;53.172;6.974;2022-08-02T15:37:27;27.20;91.00
52513;DHT22;38422;53.172;6.974;2022-08-02T15:39:52;27.30;90.60
52513;DHT22;38422;53.172;6.974;2022-08-02T15:42:19;27.40;90.50
52513;DHT22;38422;53.172;6.974;2022-08-02T15:44:44;27.50;90.40
52513;DHT22;38422;53.172;6.974;2022-08-02T15:47:10;27.70;90.40
52513;DHT22;38422;53.172;6.974;2022-08-02T15:49:36;27.80;90.40
52513;DHT22;38422;53.172;6.974;2022-08-02T15:52:02;28.00;90.20
52513;DHT22;38422;53.172;6.974;2022-08-02T15:54:28;28.10;88.90
52513;DHT22;38422;53.172;6.974;2022-08-02T15:56:54;28.10;89.20
52513;DHT22;38422;53.172;6.974;2022-08-02T15:59:19;27.90;88.40
52513;DHT22;38422;53.172;6.974;2022-08-02T16:01:45;27.90;89.30
52513;DHT22;38422;53.172;6.974;2022-08-02T16:04:14;27.90;89.40
52513;DHT22;38422;53.172;6.974;2022-08-02T16:06:40;28.10;89.40
52513;DHT22;38422;53.172;6.974;2022-08-02T16:09:06;28.20;88.80